sensor_id;sensor_type;location;lat;lon;timestamp;P1;durP1;ratioP1;P2;durP2;ratioP2
18399;SDS011;9326;49.468;11.008;2024-01-25T00:01:49;19.33;;;3.90;;
18399;SDS011;9326;49.468;11.008;2024-01-25T00:04:16;17.90;;;3.70;;
18399;SDS011;9326;49.468;11.008;2024-01-25T00:06:44;20.37;;;4.13;;
18399;SDS011;9326;49.468;11.008;2024-01-25T00:09:11;19.23;;;3.87;;
18399;SDS011;9326;49.468;11.008;2024-01-25T00:11:39;21.33;;;3.63;;
18399;SDS011;9326;49.468;11.008;2024-01-25T00:14:06;16.00;;;2.97;;
18399;SDS011;9326;49.468;11.008;2024-01-25T00:16:33;18.30;;;3.40;;
18399;SDS011;9326;49.468;11.008;2024-01-25T00:19:00;16.77;;;3.77;;
18399;SDS011;9326;49.468;11.008;2024-01-25T00:21:27;22.67;;;4.20;;
18399;SDS011;9326;49.468;11.008;2024-01-25T00:23:57;18.23;;;4.10;;
18399;SDS011;9326;49.468;11.008;2024-01-25T00:26:25;20.07;;;4.33;;
18399;SDS011;9326;49.468;11.008;2024-01-25T00:28:52;15.57;;;3.60;;
18399;SDS011;9326;49.468;11.008;2024-01-25T00:31:19;16.77;;;3.33;;
18399;SDS011;9326;49.468;11.008;2024-01-25T00:33:47;20.30;;;4.17;;
18399;SDS011;9326;49.468;11.008;2024-01-25T00:36:14;19.57;;;3.87;;
18399;SDS011;9326;49.468;11.008;2024-01-25T00:38:42;17.33;;;3.57;;
18399;SDS011;9326;49.468;11.008;2024-01-25T00:41:11;20.33;;;3.90;;
18399;SDS011;9326;49.468;11.008;2024-01-25T00:43:44;18.97;;;4.07;;
18399;SDS011;9326;49.468;11.008;2024-01-25T00:46:11;23.63;;;4.20;;
18399;SDS011;9326;49.468;11.008;2024-01-25T00:48:39;18.50;;;4.00;;
18399;SDS011;9326;49.468;11.008;2024-01-25T00:51:08;17.07;;;3.40;;
18399;SDS011;9326;49.468;11.008;2024-01-25T00:53:40;20.30;;;3.73;;
18399;SDS011;9326;49.468;11.008;2024-01-25T00:56:07;21.37;;;3.87;;
18399;SDS011;9326;49.468;11.008;2024-01-25T00:58:36;16.23;;;3.30;;
18399;SDS011;9326;49.468;11.008;2024-01-25T06:01:12;16.30;;;3.70;;
18399;SDS011;9326;49.468;11.008;2024-01-25T06:03:40;15.33;;;3.80;;
18399;SDS011;9326;49.468;11.008;2024-01-25T06:06:07;20.80;;;4.27;;
18399;SDS011;9326;49.468;11.008;2024-01-25T06:08:34;17.97;;;4.10;;
18399;SDS011;9326;49.468;11.008;2024-01-25T06:11:01;18.00;;;4.37;;
18399;SDS011;9326;49.468;11.008;2024-01-25T06:13:28;17.50;;;4.97;;
18399;SDS011;9326;49.468;11.008;2024-01-25T06:15:56;19.43;;;4.20;;
18399;SDS011;9326;49.468;11.008;2024-01-25T06:18:26;17.90;;;4.10;;
18399;SDS011;9326;49.468;11.008;2024-01-25T06:20:53;15.50;;;3.60;;
18399;SDS011;9326;49.468;11.008;2024-01-25T06:23:21;18.23;;;3.53;;
18399;SDS011;9326;49.468;11.008;2024-01-25T06:25:48;16.27;;;3.40;;
18399;SDS011;9326;49.468;11.008;2024-01-25T06:28:15;22.03;;;3.57;;
18399;SDS011;9326;49.468;11.008;2024-01-25T06:30:43;18.63;;;4.07;;
18399;SDS011;9326;49.468;11.008;2024-01-25T06:33:10;20.03;;;4.30;;
18399;SDS011;9326;49.468;11.008;2024-01-25T06:35:38;18.63;;;4.30;;
18399;SDS011;9326;49.468;11.008;2024-01-25T06:38:06;21.63;;;4.60;;
18399;SDS011;9326;49.468;11.008;2024-01-25T06:40:33;21.03;;;4.20;;
18399;SDS011;9326;49.468;11.008;2024-01-25T06:43:00;21.10;;;4.47;;
18399;SDS011;9326;49.468;11.008;2024-01-25T06:45:28;21.00;;;4.80;;
18399;SDS011;9326;49.468;11.008;2024-01-25T06:47:56;18.43;;;5.90;;
18399;SDS011;9326;49.468;11.008;2024-01-25T06:50:23;15.80;;;4.20;;
18399;SDS011;9326;49.468;11.008;2024-01-25T06:52:51;26.13;;;4.73;;
18399;SDS011;9326;49.468;11.008;2024-01-25T06:55:20;18.50;;;4.60;;
18399;SDS011;9326;49.468;11.008;2024-01-25T06:57:47;19.93;;;4.37;;
18399;SDS011;9326;49.468;11.008;2024-01-25T07:00:14;20.93;;;4.10;;
18399;SDS011;9326;49.468;11.008;2024-01-25T07:02:42;20.10;;;3.80;;
18399;SDS011;9326;49.468;11.008;2024-01-25T07:05:09;15.93;;;3.87;;
18399;SDS011;9326;49.468;11.008;2024-01-25T07:07:36;20.43;;;3.70;;
18399;SDS011;9326;49.468;11.008;2024-01-25T07:10:06;21.80;;;4.93;;
18399;SDS011;9326;49.468;11.008;2024-01-25T07:12:34;18.53;;;4.03;;
18399;SDS011;9326;49.468;11.008;2024-01-25T07:15:01;21.20;;;4.27;;
18399;SDS011;9326;49.468;11.008;2024-01-25T07:17:28;21.87;;;4.03;;
18399;SDS011;9326;49.468;11.008;2024-01-25T07:19:55;19.93;;;3.93;;
18399;SDS011;9326;49.468;11.008;2024-01-25T07:22:22;21.97;;;4.07;;
18399;SDS011;9326;49.468;11.008;2024-01-25T07:24:49;18.97;;;4.13;;
18399;SDS011;9326;49.468;11.008;2024-01-25T07:27:18;16.73;;;4.10;;
18399;SDS011;9326;49.468;11.008;2024-01-25T07:29:45;23.10;;;4.50;;
18399;SDS011;9326;49.468;11.008;2024-01-25T07:32:12;20.93;;;4.27;;
18399;SDS011;9326;49.468;11.008;2024-01-25T07:34:39;17.70;;;4.10;;
18399;SDS011;9326;49.468;11.008;2024-01-25T07:37:06;24.17;;;4.23;;
18399;SDS011;9326;49.468;11.008;2024-01-25T07:39:36;19.10;;;4.57;;
18399;SDS011;9326;49.468;11.008;2024-01-25T07:42:03;20.00;;;3.70;;
18399;SDS011;9326;49.468;11.008;2024-01-25T07:44:34;18.90;;;4.27;;
18399;SDS011;9326;49.468;11.008;2024-01-25T07:47:01;21.17;;;4.27;;
18399;SDS011;9326;49.468;11.008;2024-01-25T07:49:28;20.07;;;4.20;;
18399;SDS011;9326;49.468;11.008;2024-01-25T07:51:55;18.10;;;3.87;;
18399;SDS011;9326;49.468;11.008;2024-01-25T07:54:24;21.20;;;4.00;;
18399;SDS011;9326;49.468;11.008;2024-01-25T07:56:51;21.53;;;3.83;;
18399;SDS011;9326;49.468;11.008;2024-01-25T07:59:18;20.57;;;3.90;;
18399;SDS011;9326;49.468;11.008;2024-01-25T08:01:47;23.07;;;4.37;;
18399;SDS011;9326;49.468;11.008;2024-01-25T08:04:14;23.63;;;4.30;;
18399;SDS011;9326;49.468;11.008;2024-01-25T08:06:41;20.53;;;4.63;;
18399;SDS011;9326;49.468;11.008;2024-01-25T08:09:08;17.77;;;4.40;;
18399;SDS011;9326;49.468;11.008;2024-01-25T08:11:35;23.43;;;4.73;;
18399;SDS011;9326;49.468;11.008;2024-01-25T08:14:03;21.77;;;4.37;;
18399;SDS011;9326;49.468;11.008;2024-01-25T08:16:30;20.50;;;4.60;;
18399;SDS011;9326;49.468;11.008;2024-01-25T08:18:59;20.33;;;4.33;;
18399;SDS011;9326;49.468;11.008;2024-01-25T08:21:26;19.20;;;3.93;;
18399;SDS011;9326;49.468;11.008;2024-01-25T08:23:53;24.23;;;4.70;;
18399;SDS011;9326;49.468;11.008;2024-01-25T08:26:20;22.10;;;4.50;;
18399;SDS011;9326;49.468;11.008;2024-01-25T08:28:47;22.57;;;4.73;;
18399;SDS011;9326;49.468;11.008;2024-01-25T08:31:14;23.03;;;4.97;;
18399;SDS011;9326;49.468;11.008;2024-01-25T08:33:42;21.57;;;4.30;;
18399;SDS011;9326;49.468;11.008;2024-01-25T08:36:13;20.23;;;4.60;;
18399;SDS011;9326;49.468;11.008;2024-01-25T08:38:43;14.90;;;3.63;;
18399;SDS011;9326;49.468;11.008;2024-01-25T08:41:10;20.00;;;4.00;;
18399;SDS011;9326;49.468;11.008;2024-01-25T08:43:39;18.33;;;4.43;;
18399;SDS011;9326;49.468;11.008;2024-01-25T08:46:06;18.67;;;3.77;;
18399;SDS011;9326;49.468;11.008;2024-01-25T08:48:34;21.73;;;3.90;;
18399;SDS011;9326;49.468;11.008;2024-01-25T08:51:01;26.37;;;4.47;;
18399;SDS011;9326;49.468;11.008;2024-01-25T08:53:30;18.83;;;4.23;;
18399;SDS011;9326;49.468;11.008;2024-01-25T08:55:57;24.40;;;4.33;;
18399;SDS011;9326;49.468;11.008;2024-01-25T08:58:24;20.53;;;4.07;;
18399;SDS011;9326;49.468;11.008;2024-01-25T09:00:51;26.33;;;7.97;;
18399;SDS011;9326;49.468;11.008;2024-01-25T09:03:19;20.47;;;5.83;;
18399;SDS011;9326;49.468;11.008;2024-01-25T09:05:47;21.00;;;3.77;;
18399;SDS011;9326;49.468;11.008;2024-01-25T09:08:15;18.03;;;4.13;;
18399;SDS011;9326;49.468;11.008;2024-01-25T09:10:43;16.63;;;3.97;;
18399;SDS011;9326;49.468;11.008;2024-01-25T09:13:11;23.97;;;4.57;;
18399;SDS011;9326;49.468;11.008;2024-01-25T09:15:38;19.40;;;4.60;;
18399;SDS011;9326;49.468;11.008;2024-01-25T09:18:05;17.53;;;3.80;;
18399;SDS011;9326;49.468;11.008;2024-01-25T09:20:32;17.93;;;3.97;;
18399;SDS011;9326;49.468;11.008;2024-01-25T09:23:00;22.83;;;4.17;;
18399;SDS011;9326;49.468;11.008;2024-01-25T09:25:27;18.87;;;4.53;;
18399;SDS011;9326;49.468;11.008;2024-01-25T09:27:55;21.20;;;5.00;;
18399;SDS011;9326;49.468;11.008;2024-01-25T09:30:23;20.23;;;4.70;;
18399;SDS011;9326;49.468;11.008;2024-01-25T09:32:51;20.13;;;4.43;;
18399;SDS011;9326;49.468;11.008;2024-01-25T09:35:18;19.67;;;3.83;;
18399;SDS011;9326;49.468;11.008;2024-01-25T09:37:45;24.40;;;5.30;;
18399;SDS011;9326;49.468;11.008;2024-01-25T09:40:13;21.20;;;4.20;;
18399;SDS011;9326;49.468;11.008;2024-01-25T09:42:40;21.30;;;4.63;;
18399;SDS011;9326;49.468;11.008;2024-01-25T09:45:10;19.73;;;3.90;;
18399;SDS011;9326;49.468;11.008;2024-01-25T09:47:38;18.40;;;4.07;;
18399;SDS011;9326;49.468;11.008;2024-01-25T09:50:05;18.93;;;4.20;;
18399;SDS011;9326;49.468;11.008;2024-01-25T09:52:34;21.83;;;4.30;;
18399;SDS011;9326;49.468;11.008;2024-01-25T09:55:02;20.07;;;4.13;;
18399;SDS011;9326;49.468;11.008;2024-01-25T09:57:31;22.67;;;4.53;;
18399;SDS011;9326;49.468;11.008;2024-01-25T10:00:01;16.47;;;3.80;;
18399;SDS011;9326;49.468;11.008;2024-01-25T10:02:31;15.27;;;4.10;;
18399;SDS011;9326;49.468;11.008;2024-01-25T10:04:58;20.40;;;4.17;;
18399;SDS011;9326;49.468;11.008;2024-01-25T10:07:36;19.83;;;3.90;;
18399;SDS011;9326;49.468;11.008;2024-01-25T10:10:03;18.67;;;3.80;;
18399;SDS011;9326;49.468;11.008;2024-01-25T10:12:31;17.77;;;4.23;;
18399;SDS011;9326;49.468;11.008;2024-01-25T10:14:58;21.53;;;4.43;;
18399;SDS011;9326;49.468;11.008;2024-01-25T10:17:25;16.80;;;3.90;;
18399;SDS011;9326;49.468;11.008;2024-01-25T10:19:54;22.27;;;4.40;;
18399;SDS011;9326;49.468;11.008;2024-01-25T10:22:21;14.80;;;3.80;;
18399;SDS011;9326;49.468;11.008;2024-01-25T10:24:48;17.00;;;3.73;;
18399;SDS011;9326;49.468;11.008;2024-01-25T10:27:16;18.03;;;4.30;;
18399;SDS011;9326;49.468;11.008;2024-01-25T10:29:43;17.63;;;3.43;;
18399;SDS011;9326;49.468;11.008;2024-01-25T10:32:10;19.60;;;3.60;;
18399;SDS011;9326;49.468;11.008;2024-01-25T10:34:38;12.77;;;3.57;;
18399;SDS011;9326;49.468;11.008;2024-01-25T10:37:06;13.93;;;3.83;;
18399;SDS011;9326;49.468;11.008;2024-01-25T10:39:34;16.87;;;3.77;;
18399;SDS011;9326;49.468;11.008;2024-01-25T10:42:01;22.40;;;3.70;;
18399;SDS011;9326;49.468;11.008;2024-01-25T10:44:28;13.50;;;3.60;;
18399;SDS011;9326;49.468;11.008;2024-01-25T10:46:55;13.10;;;3.47;;
18399;SDS011;9326;49.468;11.008;2024-01-25T10:49:22;16.73;;;3.17;;
18399;SDS011;9326;49.468;11.008;2024-01-25T10:51:50;14.60;;;3.67;;
18399;SDS011;9326;49.468;11.008;2024-01-25T10:54:18;13.83;;;3.07;;
18399;SDS011;9326;49.468;11.008;2024-01-25T10:56:46;11.93;;;3.20;;
18399;SDS011;9326;49.468;11.008;2024-01-25T10:59:13;19.73;;;4.40;;
18399;SDS011;9326;49.468;11.008;2024-01-25T11:01:42;18.37;;;4.03;;
18399;SDS011;9326;49.468;11.008;2024-01-25T11:04:13;15.10;;;3.87;;
18399;SDS011;9326;49.468;11.008;2024-01-25T11:06:40;19.47;;;4.07;;
18399;SDS011;9326;49.468;11.008;2024-01-25T11:09:08;20.17;;;3.77;;
18399;SDS011;9326;49.468;11.008;2024-01-25T11:11:36;21.73;;;4.70;;
18399;SDS011;9326;49.468;11.008;2024-01-25T11:14:03;14.83;;;3.70;;
18399;SDS011;9326;49.468;11.008;2024-01-25T11:16:31;16.57;;;3.77;;
18399;SDS011;9326;49.468;11.008;2024-01-25T11:18:59;16.60;;;3.80;;
18399;SDS011;9326;49.468;11.008;2024-01-25T11:21:38;17.87;;;3.70;;
18399;SDS011;9326;49.468;11.008;2024-01-25T11:24:11;19.17;;;4.20;;
18399;SDS011;9326;49.468;11.008;2024-01-25T11:26:39;13.03;;;4.03;;
18399;SDS011;9326;49.468;11.008;2024-01-25T11:29:06;14.97;;;3.30;;
18399;SDS011;9326;49.468;11.008;2024-01-25T11:31:34;15.43;;;3.70;;
18399;SDS011;9326;49.468;11.008;2024-01-25T11:34:01;17.33;;;3.70;;
18399;SDS011;9326;49.468;11.008;2024-01-25T11:36:28;18.23;;;4.13;;
18399;SDS011;9326;49.468;11.008;2024-01-25T11:38:55;18.67;;;4.13;;
18399;SDS011;9326;49.468;11.008;2024-01-25T11:41:23;13.87;;;3.90;;
18399;SDS011;9326;49.468;11.008;2024-01-25T11:43:52;18.53;;;3.80;;
18399;SDS011;9326;49.468;11.008;2024-01-25T11:46:19;15.80;;;3.60;;
18399;SDS011;9326;49.468;11.008;2024-01-25T11:48:46;15.13;;;3.50;;
18399;SDS011;9326;49.468;11.008;2024-01-25T11:51:13;16.60;;;4.17;;
18399;SDS011;9326;49.468;11.008;2024-01-25T11:53:41;16.37;;;3.63;;
18399;SDS011;9326;49.468;11.008;2024-01-25T11:56:10;14.97;;;3.70;;
18399;SDS011;9326;49.468;11.008;2024-01-25T11:58:39;17.17;;;3.63;;
18399;SDS011;9326;49.468;11.008;2024-01-25T12:01:08;13.97;;;4.17;;
18399;SDS011;9326;49.468;11.008;2024-01-25T12:03:36;20.87;;;4.23;;
18399;SDS011;9326;49.468;11.008;2024-01-25T12:06:03;16.00;;;3.97;;
18399;SDS011;9326;49.468;11.008;2024-01-25T12:08:31;20.77;;;3.73;;
18399;SDS011;9326;49.468;11.008;2024-01-25T12:11:02;11.90;;;3.67;;
18399;SDS011;9326;49.468;11.008;2024-01-25T12:13:31;18.37;;;4.00;;
18399;SDS011;9326;49.468;11.008;2024-01-25T12:15:58;15.33;;;3.93;;
18399;SDS011;9326;49.468;11.008;2024-01-25T12:18:28;16.20;;;3.83;;
18399;SDS011;9326;49.468;11.008;2024-01-25T12:20:57;14.40;;;3.60;;
18399;SDS011;9326;49.468;11.008;2024-01-25T12:23:29;12.90;;;3.13;;
18399;SDS011;9326;49.468;11.008;2024-01-25T12:25:58;15.63;;;4.57;;
18399;SDS011;9326;49.468;11.008;2024-01-25T12:28:25;14.17;;;3.50;;
18399;SDS011;9326;49.468;11.008;2024-01-25T12:30:53;17.50;;;3.90;;
18399;SDS011;9326;49.468;11.008;2024-01-25T12:33:20;19.00;;;4.00;;
18399;SDS011;9326;49.468;11.008;2024-01-25T12:35:48;16.83;;;3.70;;
18399;SDS011;9326;49.468;11.008;2024-01-25T12:38:16;16.60;;;3.77;;
18399;SDS011;9326;49.468;11.008;2024-01-25T12:40:43;12.47;;;3.40;;
18399;SDS011;9326;49.468;11.008;2024-01-25T12:43:10;17.83;;;3.50;;
18399;SDS011;9326;49.468;11.008;2024-01-25T12:45:37;14.33;;;3.53;;
18399;SDS011;9326;49.468;11.008;2024-01-25T12:48:05;17.03;;;3.83;;
18399;SDS011;9326;49.468;11.008;2024-01-25T12:50:33;16.77;;;3.70;;
18399;SDS011;9326;49.468;11.008;2024-01-25T12:53:01;15.90;;;3.50;;
18399;SDS011;9326;49.468;11.008;2024-01-25T12:55:29;13.57;;;3.30;;
18399;SDS011;9326;49.468;11.008;2024-01-25T12:57:56;16.53;;;3.87;;
18399;SDS011;9326;49.468;11.008;2024-01-25T13:00:24;15.17;;;3.67;;
18399;SDS011;9326;49.468;11.008;2024-01-25T13:02:51;16.00;;;3.40;;
18399;SDS011;9326;49.468;11.008;2024-01-25T13:05:19;16.97;;;3.87;;
18399;SDS011;9326;49.468;11.008;2024-01-25T13:07:46;11.67;;;3.10;;
18399;SDS011;9326;49.468;11.008;2024-01-25T13:10:15;10.80;;;3.70;;
18399;SDS011;9326;49.468;11.008;2024-01-25T13:12:42;14.23;;;3.60;;
18399;SDS011;9326;49.468;11.008;2024-01-25T13:15:09;16.37;;;3.43;;
18399;SDS011;9326;49.468;11.008;2024-01-25T13:17:36;15.67;;;3.53;;
18399;SDS011;9326;49.468;11.008;2024-01-25T13:20:04;16.07;;;3.53;;
18399;SDS011;9326;49.468;11.008;2024-01-25T13:22:32;16.63;;;3.73;;
18399;SDS011;9326;49.468;11.008;2024-01-25T13:24:59;15.87;;;3.73;;
18399;SDS011;9326;49.468;11.008;2024-01-25T13:27:28;19.00;;;3.77;;
18399;SDS011;9326;49.468;11.008;2024-01-25T13:29:55;17.07;;;3.50;;
18399;SDS011;9326;49.468;11.008;2024-01-25T13:32:23;14.30;;;3.57;;
18399;SDS011;9326;49.468;11.008;2024-01-25T13:34:50;19.30;;;3.90;;
18399;SDS011;9326;49.468;11.008;2024-01-25T13:37:17;18.20;;;3.93;;
18399;SDS011;9326;49.468;11.008;2024-01-25T13:39:44;14.37;;;3.43;;
18399;SDS011;9326;49.468;11.008;2024-01-25T13:42:11;16.00;;;3.90;;
18399;SDS011;9326;49.468;11.008;2024-01-25T13:44:40;15.00;;;3.40;;
18399;SDS011;9326;49.468;11.008;2024-01-25T13:47:07;15.57;;;3.33;;
18399;SDS011;9326;49.468;11.008;2024-01-25T13:49:34;14.20;;;3.07;;
18399;SDS011;9326;49.468;11.008;2024-01-25T13:52:01;12.80;;;4.10;;
18399;SDS011;9326;49.468;11.008;2024-01-25T13:54:29;17.13;;;3.90;;
18399;SDS011;9326;49.468;11.008;2024-01-25T13:56:56;16.87;;;3.90;;
18399;SDS011;9326;49.468;11.008;2024-01-25T13:59:23;12.57;;;3.20;;
18399;SDS011;9326;49.468;11.008;2024-01-25T14:01:52;15.37;;;3.60;;
18399;SDS011;9326;49.468;11.008;2024-01-25T14:04:19;13.87;;;3.30;;
18399;SDS011;9326;49.468;11.008;2024-01-25T14:06:46;15.10;;;3.70;;
18399;SDS011;9326;49.468;11.008;2024-01-25T14:09:14;12.10;;;3.43;;
18399;SDS011;9326;49.468;11.008;2024-01-25T14:11:41;14.43;;;3.40;;
18399;SDS011;9326;49.468;11.008;2024-01-25T14:14:08;14.00;;;3.47;;
18399;SDS011;9326;49.468;11.008;2024-01-25T14:16:35;14.23;;;3.33;;
18399;SDS011;9326;49.468;11.008;2024-01-25T14:19:04;20.63;;;3.43;;
18399;SDS011;9326;49.468;11.008;2024-01-25T14:21:31;17.03;;;3.97;;
18399;SDS011;9326;49.468;11.008;2024-01-25T14:23:58;14.43;;;4.10;;
18399;SDS011;9326;49.468;11.008;2024-01-25T14:26:25;18.63;;;3.80;;
18399;SDS011;9326;49.468;11.008;2024-01-25T14:28:53;20.40;;;3.67;;
18399;SDS011;9326;49.468;11.008;2024-01-25T14:31:20;19.47;;;4.03;;
18399;SDS011;9326;49.468;11.008;2024-01-25T14:33:47;12.60;;;3.10;;
18399;SDS011;9326;49.468;11.008;2024-01-25T14:36:15;14.93;;;3.33;;
18399;SDS011;9326;49.468;11.008;2024-01-25T14:38:42;18.23;;;4.20;;
18399;SDS011;9326;49.468;11.008;2024-01-25T14:41:10;15.77;;;4.23;;
18399;SDS011;9326;49.468;11.008;2024-01-25T14:43:37;15.23;;;3.50;;
18399;SDS011;9326;49.468;11.008;2024-01-25T14:46:04;16.07;;;3.60;;
18399;SDS011;9326;49.468;11.008;2024-01-25T14:48:32;17.73;;;4.33;;
18399;SDS011;9326;49.468;11.008;2024-01-25T14:50:59;16.23;;;3.60;;
18399;SDS011;9326;49.468;11.008;2024-01-25T14:53:28;18.60;;;3.83;;
18399;SDS011;9326;49.468;11.008;2024-01-25T14:55:55;18.43;;;3.87;;
18399;SDS011;9326;49.468;11.008;2024-01-25T14:58:22;18.37;;;4.00;;
18399;SDS011;9326;49.468;11.008;2024-01-25T15:00:50;17.20;;;3.60;;
18399;SDS011;9326;49.468;11.008;2024-01-25T15:03:17;16.77;;;3.83;;
18399;SDS011;9326;49.468;11.008;2024-01-25T15:05:44;17.37;;;3.53;;
18399;SDS011;9326;49.468;11.008;2024-01-25T15:08:11;17.93;;;3.63;;
18399;SDS011;9326;49.468;11.008;2024-01-25T15:10:40;16.33;;;3.80;;
18399;SDS011;9326;49.468;11.008;2024-01-25T15:13:07;16.77;;;3.87;;
18399;SDS011;9326;49.468;11.008;2024-01-25T15:15:34;15.10;;;4.00;;
18399;SDS011;9326;49.468;11.008;2024-01-25T15:18:01;19.20;;;4.53;;
18399;SDS011;9326;49.468;11.008;2024-01-25T15:20:29;14.27;;;3.43;;
18399;SDS011;9326;49.468;11.008;2024-01-25T15:22:56;19.03;;;4.53;;
18399;SDS011;9326;49.468;11.008;2024-01-25T15:25:25;16.50;;;3.77;;
18399;SDS011;9326;49.468;11.008;2024-01-25T15:27:54;14.53;;;4.33;;
18399;SDS011;9326;49.468;11.008;2024-01-25T15:30:21;16.77;;;4.67;;
18399;SDS011;9326;49.468;11.008;2024-01-25T15:32:49;17.73;;;3.93;;
18399;SDS011;9326;49.468;11.008;2024-01-25T15:35:16;23.63;;;4.30;;
18399;SDS011;9326;49.468;11.008;2024-01-25T15:37:43;15.23;;;4.37;;
18399;SDS011;9326;49.468;11.008;2024-01-25T15:40:11;16.53;;;4.20;;
18399;SDS011;9326;49.468;11.008;2024-01-25T15:42:38;14.37;;;3.90;;
18399;SDS011;9326;49.468;11.008;2024-01-25T15:45:07;18.23;;;4.30;;
18399;SDS011;9326;49.468;11.008;2024-01-25T15:47:35;15.60;;;3.97;;
18399;SDS011;9326;49.468;11.008;2024-01-25T15:50:02;16.13;;;4.67;;
18399;SDS011;9326;49.468;11.008;2024-01-25T15:52:30;16.47;;;4.27;;
18399;SDS011;9326;49.468;11.008;2024-01-25T15:54:58;19.23;;;4.60;;
18399;SDS011;9326;49.468;11.008;2024-01-25T15:57:25;18.57;;;4.77;;
18399;SDS011;9326;49.468;11.008;2024-01-25T15:59:56;15.27;;;4.43;;
18399;SDS011;9326;49.468;11.008;2024-01-25T16:02:25;17.83;;;5.10;;
18399;SDS011;9326;49.468;11.008;2024-01-25T16:04:52;19.00;;;4.90;;
18399;SDS011;9326;49.468;11.008;2024-01-25T16:07:20;20.00;;;5.70;;
18399;SDS011;9326;49.468;11.008;2024-01-25T16:09:47;19.23;;;6.60;;
18399;SDS011;9326;49.468;11.008;2024-01-25T16:12:14;20.27;;;6.07;;
18399;SDS011;9326;49.468;11.008;2024-01-25T16:14:43;16.33;;;5.37;;
18399;SDS011;9326;49.468;11.008;2024-01-25T16:17:11;17.50;;;5.03;;
18399;SDS011;9326;49.468;11.008;2024-01-25T16:19:41;18.53;;;5.47;;
18399;SDS011;9326;49.468;11.008;2024-01-25T16:22:08;18.07;;;4.97;;
18399;SDS011;9326;49.468;11.008;2024-01-25T16:24:35;21.10;;;5.47;;
18399;SDS011;9326;49.468;11.008;2024-01-25T16:27:03;16.27;;;4.93;;
18399;SDS011;9326;49.468;11.008;2024-01-25T16:29:30;22.20;;;6.50;;
18399;SDS011;9326;49.468;11.008;2024-01-25T16:31:57;18.60;;;5.50;;
18399;SDS011;9326;49.468;11.008;2024-01-25T16:34:25;21.17;;;5.37;;
18399;SDS011;9326;49.468;11.008;2024-01-25T16:36:53;16.10;;;5.80;;
18399;SDS011;9326;49.468;11.008;2024-01-25T16:39:20;19.77;;;6.10;;
18399;SDS011;9326;49.468;11.008;2024-01-25T16:41:47;19.63;;;5.57;;
18399;SDS011;9326;49.468;11.008;2024-01-25T16:44:15;19.63;;;5.60;;
18399;SDS011;9326;49.468;11.008;2024-01-25T16:46:44;16.67;;;5.13;;
18399;SDS011;9326;49.468;11.008;2024-01-25T16:49:12;20.37;;;6.20;;
18399;SDS011;9326;49.468;11.008;2024-01-25T16:51:39;20.73;;;5.90;;
18399;SDS011;9326;49.468;11.008;2024-01-25T16:54:07;31.90;;;10.23;;
18399;SDS011;9326;49.468;11.008;2024-01-25T16:56:34;18.77;;;7.10;;
18399;SDS011;9326;49.468;11.008;2024-01-25T16:59:02;25.77;;;10.20;;
18399;SDS011;9326;49.468;11.008;2024-01-25T17:01:29;19.53;;;6.10;;
18399;SDS011;9326;49.468;11.008;2024-01-25T17:03:56;20.20;;;5.27;;
18399;SDS011;9326;49.468;11.008;2024-01-25T17:06:23;16.93;;;4.93;;
18399;SDS011;9326;49.468;11.008;2024-01-25T17:08:50;18.93;;;6.10;;
18399;SDS011;9326;49.468;11.008;2024-01-25T17:11:18;21.53;;;7.33;;
18399;SDS011;9326;49.468;11.008;2024-01-25T17:13:45;23.87;;;8.23;;
18399;SDS011;9326;49.468;11.008;2024-01-25T17:16:12;23.03;;;7.63;;
18399;SDS011;9326;49.468;11.008;2024-01-25T17:18:39;22.37;;;7.17;;
18399;SDS011;9326;49.468;11.008;2024-01-25T17:21:08;24.90;;;9.70;;
18399;SDS011;9326;49.468;11.008;2024-01-25T17:23:35;21.87;;;8.83;;
18399;SDS011;9326;49.468;11.008;2024-01-25T17:26:02;28.07;;;12.60;;
18399;SDS011;9326;49.468;11.008;2024-01-25T17:28:32;26.77;;;9.57;;
18399;SDS011;9326;49.468;11.008;2024-01-25T17:30:59;24.20;;;9.83;;
18399;SDS011;9326;49.468;11.008;2024-01-25T17:33:30;24.43;;;10.63;;
18399;SDS011;9326;49.468;11.008;2024-01-25T17:35:58;23.60;;;10.90;;
18399;SDS011;9326;49.468;11.008;2024-01-25T17:38:25;22.97;;;10.37;;
18399;SDS011;9326;49.468;11.008;2024-01-25T17:40:52;25.93;;;9.93;;
18399;SDS011;9326;49.468;11.008;2024-01-25T17:43:19;28.73;;;8.63;;
18399;SDS011;9326;49.468;11.008;2024-01-25T17:45:48;18.30;;;9.13;;
18399;SDS011;9326;49.468;11.008;2024-01-25T17:48:15;21.37;;;8.27;;
18399;SDS011;9326;49.468;11.008;2024-01-25T17:50:42;23.60;;;9.13;;
18399;SDS011;9326;49.468;11.008;2024-01-25T17:53:10;22.57;;;8.73;;
18399;SDS011;9326;49.468;11.008;2024-01-25T17:55:37;19.73;;;8.30;;
18399;SDS011;9326;49.468;11.008;2024-01-25T17:58:04;27.33;;;8.60;;
18399;SDS011;9326;49.468;11.008;2024-01-25T18:00:31;25.57;;;8.70;;
18399;SDS011;9326;49.468;11.008;2024-01-25T18:03:00;26.47;;;9.20;;
18399;SDS011;9326;49.468;11.008;2024-01-25T18:05:27;22.20;;;8.53;;
18399;SDS011;9326;49.468;11.008;2024-01-25T18:07:54;22.13;;;8.87;;
18399;SDS011;9326;49.468;11.008;2024-01-25T18:10:21;25.10;;;10.87;;
18399;SDS011;9326;49.468;11.008;2024-01-25T18:12:48;28.47;;;13.17;;
18399;SDS011;9326;49.468;11.008;2024-01-25T18:15:16;30.00;;;12.97;;
18399;SDS011;9326;49.468;11.008;2024-01-25T18:17:43;28.27;;;11.80;;
18399;SDS011;9326;49.468;11.008;2024-01-25T18:20:12;25.17;;;10.77;;
18399;SDS011;9326;49.468;11.008;2024-01-25T18:22:41;24.77;;;11.00;;
18399;SDS011;9326;49.468;11.008;2024-01-25T18:25:08;31.77;;;11.50;;
18399;SDS011;9326;49.468;11.008;2024-01-25T18:27:36;27.60;;;11.47;;
18399;SDS011;9326;49.468;11.008;2024-01-25T18:30:04;31.87;;;11.43;;
18399;SDS011;9326;49.468;11.008;2024-01-25T18:32:32;27.00;;;13.37;;
18399;SDS011;9326;49.468;11.008;2024-01-25T18:35:00;31.67;;;15.07;;
18399;SDS011;9326;49.468;11.008;2024-01-25T18:37:30;30.40;;;14.57;;
18399;SDS011;9326;49.468;11.008;2024-01-25T18:39:58;28.97;;;13.83;;
18399;SDS011;9326;49.468;11.008;2024-01-25T18:42:28;33.87;;;13.10;;
18399;SDS011;9326;49.468;11.008;2024-01-25T18:44:55;28.13;;;12.77;;
18399;SDS011;9326;49.468;11.008;2024-01-25T18:47:22;29.33;;;11.50;;
18399;SDS011;9326;49.468;11.008;2024-01-25T18:49:50;24.67;;;11.20;;
18399;SDS011;9326;49.468;11.008;2024-01-25T18:52:17;33.37;;;12.23;;
18399;SDS011;9326;49.468;11.008;2024-01-25T18:54:46;24.27;;;10.73;;
18399;SDS011;9326;49.468;11.008;2024-01-25T18:57:14;24.93;;;11.10;;
18399;SDS011;9326;49.468;11.008;2024-01-25T18:59:41;30.50;;;12.33;;
18399;SDS011;9326;49.468;11.008;2024-01-25T19:02:09;26.30;;;11.33;;
18399;SDS011;9326;49.468;11.008;2024-01-25T19:04:36;29.20;;;12.13;;
18399;SDS011;9326;49.468;11.008;2024-01-25T19:07:04;25.40;;;12.10;;
18399;SDS011;9326;49.468;11.008;2024-01-25T19:09:31;26.03;;;12.73;;
18399;SDS011;9326;49.468;11.008;2024-01-25T19:12:01;30.20;;;14.30;;
18399;SDS011;9326;49.468;11.008;2024-01-25T19:14:29;28.30;;;15.10;;
18399;SDS011;9326;49.468;11.008;2024-01-25T19:16:56;25.13;;;13.63;;
18399;SDS011;9326;49.468;11.008;2024-01-25T19:19:24;25.03;;;11.40;;
18399;SDS011;9326;49.468;11.008;2024-01-25T19:21:51;33.73;;;13.23;;
18399;SDS011;9326;49.468;11.008;2024-01-25T19:24:19;31.43;;;15.50;;
18399;SDS011;9326;49.468;11.008;2024-01-25T19:26:47;38.67;;;16.53;;
18399;SDS011;9326;49.468;11.008;2024-01-25T19:29:16;30.27;;;16.53;;
18399;SDS011;9326;49.468;11.008;2024-01-25T19:31:44;32.13;;;15.43;;
18399;SDS011;9326;49.468;11.008;2024-01-25T19:34:11;32.67;;;16.37;;
18399;SDS011;9326;49.468;11.008;2024-01-25T19:36:38;91.10;;;54.37;;